createdAt,value
2022-09-13T00:01:29.946Z,2.30
2022-09-13T00:03:56.726Z,2.70
2022-09-13T00:11:43.842Z,2.67
2022-09-13T00:14:11.195Z,2.55
2022-09-13T00:16:37.935Z,2.70
2022-09-13T00:19:05.286Z,2.55
2022-09-13T00:21:32.143Z,2.63
2022-09-13T00:23:58.982Z,2.83
2022-09-13T00:26:28.089Z,3.03
2022-09-13T00:34:03.345Z,4.43
2022-09-13T00:36:30.205Z,3.42
2022-09-13T00:38:57.647Z,4.07
2022-09-13T00:41:24.605Z,4.03
2022-09-13T00:43:57.875Z,4.32
2022-09-13T00:46:33.291Z,4.38
2022-09-13T00:49:14.637Z,4.13
2022-09-13T00:56:53.546Z,4.32
2022-09-13T00:59:37.363Z,4.53
2022-09-13T01:02:06.078Z,4.40
2022-09-13T01:04:36.354Z,4.25
2022-09-13T01:07:09.624Z,4.60
2022-09-13T01:09:39.376Z,4.13
2022-09-13T01:16:15.766Z,4.38
2022-09-13T01:18:43.263Z,4.90
2022-09-13T01:21:44.504Z,3.28
2022-09-13T01:24:33.112Z,3.75
2022-09-13T01:30:16.230Z,4.20
2022-09-13T01:37:33.267Z,4.50
2022-09-13T01:40:32.684Z,4.18
2022-09-13T01:43:15.547Z,4.22
2022-09-13T01:46:13.139Z,3.80
2022-09-13T01:49:04.537Z,4.10
2022-09-13T01:52:02.388Z,3.83
2022-09-13T01:57:53.438Z,4.25
2022-09-13T02:00:20.737Z,4.80
2022-09-13T02:03:02.030Z,4.85
2022-09-13T02:05:38.342Z,4.88
2022-09-13T02:08:40.357Z,5.07
2022-09-13T02:11:13.234Z,4.57
2022-09-13T02:19:06.734Z,4.82
2022-09-13T02:21:43.283Z,4.65
2022-09-13T02:24:35.193Z,5.07
2022-09-13T02:27:07.872Z,5.20
2022-09-13T02:29:38.828Z,5.80
2022-09-13T02:32:15.049Z,5.68
2022-09-13T02:34:51.381Z,6.07
2022-09-13T02:41:36.484Z,5.95
2022-09-13T02:44:23.788Z,5.78
2022-09-13T02:47:06.296Z,5.35
2022-09-13T02:52:55.830Z,5.25
2022-09-13T02:55:26.735Z,5.45
2022-09-13T03:03:11.941Z,5.40
2022-09-13T03:05:40.237Z,5.43
2022-09-13T03:08:10.984Z,5.88
2022-09-13T03:10:52.777Z,5.93
2022-09-13T03:13:49.965Z,5.78
2022-09-13T03:17:08.349Z,6.03
2022-09-13T03:25:13.537Z,6.10
2022-09-13T03:27:55.953Z,6.72
2022-09-13T03:30:22.912Z,6.72
2022-09-13T03:33:31.110Z,7.90
2022-09-13T03:36:20.742Z,6.28
2022-09-13T03:39:15.262Z,7.00
2022-09-13T03:46:36.685Z,6.68
2022-09-13T03:49:13.962Z,7.30
2022-09-13T03:51:47.159Z,6.93
2022-09-13T03:54:26.546Z,6.93
2022-09-13T03:57:14.943Z,7.75
2022-09-13T03:59:46.538Z,7.50
2022-09-13T04:05:46.709Z,8.65
2022-09-13T04:08:13.459Z,8.30
2022-09-13T04:10:40.718Z,8.32
2022-09-13T04:13:08.635Z,8.82
2022-09-13T04:15:35.648Z,8.73
2022-09-13T04:18:02.715Z,9.70
2022-09-13T04:20:29.617Z,9.70
2022-09-13T04:28:23.829Z,10.98
2022-09-13T04:30:50.678Z,11.18
2022-09-13T04:33:17.482Z,12.10
2022-09-13T04:35:44.211Z,10.85
2022-09-13T04:38:11.049Z,12.30
2022-09-13T04:40:38.888Z,11.82
2022-09-13T04:43:05.735Z,12.40
2022-09-13T04:50:33.756Z,12.32
2022-09-13T04:53:02.546Z,12.15
2022-09-13T04:55:29.575Z,12.10
2022-09-13T04:57:56.807Z,13.95
2022-09-13T05:00:25.926Z,11.27
2022-09-13T05:02:56.751Z,12.25
2022-09-13T05:05:25.649Z,11.85
2022-09-13T05:12:16.571Z,10.73
2022-09-13T05:14:43.416Z,11.65
2022-09-13T05:17:11.242Z,10.85
2022-09-13T05:19:38.067Z,11.30
2022-09-13T05:22:04.992Z,12.10
2022-09-13T05:24:32.705Z,11.63
2022-09-13T05:26:59.707Z,11.27
2022-09-13T05:33:00.305Z,10.13
2022-09-13T05:35:27.846Z,10.48
2022-09-13T05:37:54.664Z,10.23
2022-09-13T05:40:21.823Z,10.50
2022-09-13T05:42:48.557Z,10.38
2022-09-13T05:45:16.235Z,10.57
2022-09-13T05:47:43.237Z,10.85
2022-09-13T05:53:49.400Z,9.38
2022-09-13T05:56:19.069Z,10.07
2022-09-13T05:58:47.909Z,9.52
2022-09-13T06:01:17.167Z,9.30
2022-09-13T06:03:51.152Z,8.85
2022-09-13T06:06:19.596Z,8.35
2022-09-13T06:08:46.537Z,8.95
2022-09-13T06:15:13.257Z,8.02
2022-09-13T06:17:41.006Z,8.38
2022-09-13T06:20:08.764Z,7.75
2022-09-13T06:22:35.867Z,8.40
2022-09-13T06:25:02.844Z,7.88
2022-09-13T06:27:30.733Z,8.05
2022-09-13T06:29:57.769Z,7.43
2022-09-13T06:37:26.247Z,5.90
2022-09-13T06:39:53.216Z,4.80
2022-09-13T06:42:20.062Z,3.97
2022-09-13T06:44:48.287Z,4.18
2022-09-13T06:47:14.949Z,3.40
2022-09-13T06:49:45.187Z,2.70
2022-09-13T06:52:12.099Z,2.45
2022-09-13T06:59:25.054Z,1.33
2022-09-13T07:01:52.325Z,1.10
2022-09-13T07:04:19.705Z,1.00
2022-09-13T07:06:48.308Z,1.08
2022-09-13T07:09:21.067Z,0.80
2022-09-13T07:11:51.031Z,1.00
2022-09-13T07:14:21.708Z,0.90
2022-09-13T07:21:03.023Z,0.82
2022-09-13T07:23:35.006Z,1.15
2022-09-13T07:26:05.117Z,0.82
2022-09-13T07:28:40.474Z,0.95
2022-09-13T07:31:09.162Z,1.00
2022-09-13T07:33:37.250Z,0.80
2022-09-13T07:36:06.168Z,0.75
2022-09-13T07:42:51.102Z,1.40
2022-09-13T07:45:17.830Z,0.93
2022-09-13T07:47:45.542Z,1.02
2022-09-13T07:50:12.238Z,0.98
2022-09-13T07:52:40.465Z,0.80
2022-09-13T07:55:07.587Z,0.82
2022-09-13T07:57:35.378Z,0.70
2022-09-13T08:04:20.790Z,0.77
2022-09-13T08:06:48.390Z,0.90
2022-09-13T08:09:16.878Z,0.80
2022-09-13T08:11:52.380Z,0.85
2022-09-13T08:14:21.706Z,0.90
2022-09-13T08:16:48.945Z,1.00
2022-09-13T08:19:18.133Z,0.95
2022-09-13T08:26:32.948Z,0.77
2022-09-13T08:29:01.887Z,0.65
2022-09-13T08:31:29.905Z,0.70
2022-09-13T08:33:57.367Z,0.70
2022-09-13T08:36:25.667Z,1.00
2022-09-13T08:38:55.347Z,0.93
2022-09-13T08:41:39.794Z,0.40
2022-09-13T08:47:16.579Z,0.82
2022-09-13T08:49:48.004Z,0.68
2022-09-13T08:52:15.100Z,0.50
2022-09-13T08:54:42.622Z,0.63
2022-09-13T08:57:16.515Z,0.57
2022-09-13T09:00:02.503Z,0.82
2022-09-13T09:02:55.035Z,0.70
2022-09-13T09:09:55.723Z,0.80
2022-09-13T09:12:27.726Z,0.50
2022-09-13T09:15:00.813Z,0.68
2022-09-13T09:18:00.418Z,0.47
2022-09-13T09:20:48.638Z,0.70
2022-09-13T09:23:41.346Z,0.70
2022-09-13T09:29:25.322Z,0.63
2022-09-13T09:32:17.868Z,0.73
2022-09-13T09:35:09.658Z,0.40
2022-09-13T09:37:38.964Z,0.93
2022-09-13T09:40:10.138Z,0.82
2022-09-13T09:42:48.704Z,0.50
2022-09-13T09:48:54.979Z,0.65
2022-09-13T09:51:25.173Z,0.70
2022-09-13T09:54:01.362Z,0.70
2022-09-13T09:56:33.259Z,0.70
2022-09-13T09:59:02.164Z,0.73
2022-09-13T10:01:36.907Z,0.60
2022-09-13T10:04:19.456Z,0.60
2022-09-13T10:09:26.728Z,0.65
2022-09-13T10:11:59.218Z,0.55
2022-09-13T10:14:45.533Z,0.65
2022-09-13T10:17:24.943Z,0.70
2022-09-13T10:20:04.550Z,0.55
2022-09-13T10:22:35.767Z,0.60
2022-09-13T10:30:38.786Z,0.50
2022-09-13T10:33:13.199Z,0.68
2022-09-13T10:35:39.792Z,0.75
2022-09-13T10:38:25.804Z,0.50
2022-09-13T10:40:52.861Z,0.73
2022-09-13T10:43:21.555Z,0.50
2022-09-13T10:48:57.771Z,0.73
2022-09-13T10:51:27.923Z,0.70
2022-09-13T10:54:18.510Z,0.50
2022-09-13T10:56:51.013Z,0.70
2022-09-13T10:59:28.918Z,0.75
2022-09-13T11:02:33.494Z,0.55
2022-09-13T11:11:01.138Z,0.60
2022-09-13T11:13:52.022Z,0.47
2022-09-13T11:16:38.026Z,0.98
2022-09-13T11:19:28.970Z,0.80
2022-09-13T11:22:17.451Z,0.63
2022-09-13T11:25:29.570Z,0.52
2022-09-13T11:33:04.005Z,0.50
2022-09-13T11:36:21.965Z,0.63
2022-09-13T11:41:51.660Z,0.82
2022-09-13T11:44:50.727Z,0.40
2022-09-13T11:47:48.115Z,0.60
2022-09-13T11:55:25.238Z,0.70
2022-09-13T11:57:55.302Z,0.40
2022-09-13T12:00:30.716Z,0.50
2022-09-13T12:03:14.872Z,0.73
2022-09-13T12:05:51.722Z,0.47
2022-09-13T12:08:30.262Z,0.85
2022-09-13T12:16:41.514Z,0.40
2022-09-13T12:19:55.270Z,0.50
2022-09-13T12:22:30.966Z,0.45
2022-09-13T12:25:03.443Z,0.80
2022-09-13T12:27:37.709Z,0.60
2022-09-13T12:30:33.214Z,0.57
2022-09-13T12:37:15.753Z,0.60
2022-09-13T12:39:54.698Z,0.60
2022-09-13T12:42:42.939Z,0.82
2022-09-13T12:48:22.826Z,0.95
2022-09-13T12:51:14.656Z,0.80
2022-09-13T12:59:36.453Z,1.38
2022-09-13T13:02:21.853Z,0.77
2022-09-13T13:04:55.341Z,0.60
2022-09-13T13:07:23.439Z,0.88
2022-09-13T13:09:54.175Z,0.50
2022-09-13T13:12:33.546Z,1.00
2022-09-13T13:18:58.847Z,0.85
2022-09-13T13:21:46.100Z,0.82
2022-09-13T13:24:16.243Z,0.75
2022-09-13T13:26:56.193Z,0.47
2022-09-13T13:29:33.234Z,0.60
2022-09-13T13:32:03.864Z,0.45
2022-09-13T13:40:20.652Z,0.60
2022-09-13T13:42:48.571Z,0.38
2022-09-13T13:45:23.859Z,0.40
2022-09-13T13:47:56.491Z,0.50
2022-09-13T13:50:23.435Z,0.43
2022-09-13T13:52:52.943Z,0.60
2022-09-13T14:02:52.938Z,0.80
2022-09-13T14:05:32.217Z,0.90
2022-09-13T14:08:14.293Z,1.13
2022-09-13T14:10:50.137Z,0.52
2022-09-13T14:13:33.144Z,0.55
2022-09-13T14:16:06.296Z,0.52
2022-09-13T14:24:19.454Z,0.60
2022-09-13T14:26:57.480Z,0.60
2022-09-13T14:29:28.360Z,0.55
2022-09-13T14:32:10.070Z,0.70
2022-09-13T14:34:38.703Z,0.75
2022-09-13T14:37:15.848Z,0.80
2022-09-13T14:45:35.632Z,1.00
2022-09-13T14:48:10.350Z,0.68
2022-09-13T14:50:52.834Z,0.57
2022-09-13T14:53:32.327Z,0.80
2022-09-13T14:56:22.437Z,0.60
2022-09-13T14:58:55.196Z,0.70
2022-09-13T15:06:40.031Z,0.60
2022-09-13T15:09:09.992Z,0.35
2022-09-13T15:14:08.975Z,0.45
2022-09-13T15:16:46.924Z,0.43
2022-09-13T15:19:24.509Z,0.40
2022-09-13T15:21:51.655Z,0.68
2022-09-13T15:27:18.168Z,0.52
2022-09-13T15:29:54.202Z,0.68
2022-09-13T15:32:24.363Z,0.60
2022-09-13T15:34:51.558Z,0.40
2022-09-13T15:37:30.290Z,0.57
2022-09-13T15:40:17.001Z,0.68
2022-09-13T15:42:49.211Z,0.50
2022-09-13T15:49:08.021Z,0.40
2022-09-13T15:51:38.846Z,0.77
2022-09-13T15:54:12.900Z,0.50
2022-09-13T15:56:46.062Z,0.40
2022-09-13T15:59:14.421Z,0.20
2022-09-13T16:01:42.629Z,0.20
2022-09-13T16:04:10.487Z,0.52
2022-09-13T16:11:01.548Z,0.40
2022-09-13T16:13:28.973Z,0.32
2022-09-13T16:15:57.981Z,0.50
2022-09-13T16:18:24.998Z,0.30
2022-09-13T16:20:52.443Z,0.63
2022-09-13T16:23:19.228Z,0.50
2022-09-13T16:25:47.406Z,0.35
2022-09-13T16:33:30.779Z,0.52
2022-09-13T16:36:01.613Z,0.60
2022-09-13T16:38:29.209Z,0.32
2022-09-13T16:40:56.253Z,0.50
2022-09-13T16:43:23.416Z,0.85
2022-09-13T16:45:50.944Z,0.63
2022-09-13T16:48:17.781Z,0.57
2022-09-13T16:56:06.904Z,0.40
2022-09-13T16:58:38.997Z,0.50
2022-09-13T17:01:11.052Z,0.40
2022-09-13T17:03:39.138Z,0.52
2022-09-13T17:06:09.272Z,0.70
2022-09-13T17:08:39.178Z,0.43
2022-09-13T17:11:14.216Z,0.52
2022-09-13T17:18:08.789Z,0.47
2022-09-13T17:20:36.316Z,0.50
2022-09-13T17:23:03.302Z,0.45
2022-09-13T17:25:30.826Z,0.30
2022-09-13T17:27:57.734Z,0.80
2022-09-13T17:30:25.516Z,0.75
2022-09-13T17:32:52.128Z,0.47
2022-09-13T17:40:19.766Z,0.40
2022-09-13T17:42:48.707Z,0.32
2022-09-13T17:45:15.795Z,0.38
2022-09-13T17:47:50.502Z,0.40
2022-09-13T17:50:26.683Z,0.30
2022-09-13T17:52:54.561Z,0.35
2022-09-13T17:55:21.183Z,0.60
2022-09-13T18:02:48.505Z,0.57
2022-09-13T18:05:15.382Z,0.50
2022-09-13T18:07:42.610Z,1.33
2022-09-13T18:10:24.970Z,0.50
2022-09-13T18:12:56.943Z,0.38
2022-09-13T18:15:23.821Z,0.50
2022-09-13T18:17:50.549Z,1.00
2022-09-13T18:24:32.941Z,0.60
2022-09-13T18:27:00.925Z,0.50
2022-09-13T18:29:28.567Z,0.50
2022-09-13T18:31:55.617Z,0.65
2022-09-13T18:34:25.804Z,0.50
2022-09-13T18:36:54.674Z,0.80
2022-09-13T18:39:22.973Z,0.65
2022-09-13T18:46:52.648Z,0.63
2022-09-13T18:49:20.267Z,1.10
2022-09-13T18:51:48.827Z,0.52
2022-09-13T18:54:17.893Z,0.90
2022-09-13T18:56:46.617Z,0.60
2022-09-13T18:59:13.861Z,0.70
2022-09-13T19:01:42.781Z,0.80
2022-09-13T19:09:23.833Z,0.77
2022-09-13T19:11:53.243Z,1.00
2022-09-13T19:14:23.528Z,0.60
2022-09-13T19:16:52.418Z,0.82
2022-09-13T19:19:19.568Z,0.77
2022-09-13T19:21:47.098Z,0.68
2022-09-13T19:24:20.086Z,1.17
2022-09-13T19:31:22.455Z,0.80
2022-09-13T19:33:51.438Z,0.85
2022-09-13T19:36:25.105Z,1.05
2022-09-13T19:38:53.557Z,0.70
2022-09-13T19:41:23.622Z,0.85
2022-09-13T19:43:54.733Z,0.70
2022-09-13T19:46:28.099Z,0.80
2022-09-13T19:53:18.865Z,0.70
2022-09-13T19:55:46.429Z,0.80
2022-09-13T19:58:14.227Z,1.00
2022-09-13T20:00:43.585Z,0.68
2022-09-13T20:03:10.871Z,0.70
2022-09-13T20:05:38.244Z,0.93
2022-09-13T20:08:05.738Z,0.63
2022-09-13T20:14:04.506Z,0.57
2022-09-13T20:16:36.185Z,0.80
2022-09-13T20:19:23.565Z,0.60
2022-09-13T20:21:55.261Z,1.13
2022-09-13T20:24:21.927Z,0.77
2022-09-13T20:26:51.438Z,0.90
2022-09-13T20:34:22.675Z,0.70
2022-09-13T20:36:49.624Z,1.40
2022-09-13T20:39:16.547Z,0.50
2022-09-13T20:41:43.578Z,0.73
2022-09-13T20:44:11.444Z,1.20
2022-09-13T20:46:39.845Z,1.38
2022-09-13T20:49:08.462Z,1.40
2022-09-13T20:56:37.134Z,0.70
2022-09-13T20:59:05.074Z,0.77
2022-09-13T21:01:33.372Z,0.90
2022-09-13T21:04:00.364Z,0.60
2022-09-13T21:06:29.156Z,0.93
2022-09-13T21:08:59.454Z,0.90
2022-09-13T21:11:32.540Z,1.02
2022-09-13T21:19:11.273Z,0.70
2022-09-13T21:21:44.094Z,0.85
2022-09-13T21:24:12.304Z,1.08
2022-09-13T21:26:42.809Z,1.00
2022-09-13T21:29:10.861Z,1.00
2022-09-13T21:31:38.477Z,1.00
2022-09-13T21:34:11.544Z,0.75
2022-09-13T21:41:44.287Z,0.80
2022-09-13T21:44:12.207Z,0.80
2022-09-13T21:46:39.983Z,1.00
2022-09-13T21:49:10.107Z,0.82
2022-09-13T21:51:45.738Z,0.68
2022-09-13T21:54:15.614Z,1.02
2022-09-13T22:04:16.374Z,1.20
2022-09-13T22:06:44.918Z,1.08
2022-09-13T22:09:13.133Z,0.73
2022-09-13T22:11:45.633Z,1.05
2022-09-13T22:14:17.214Z,1.00
2022-09-13T22:16:46.234Z,1.23
2022-09-13T22:19:19.825Z,0.70
2022-09-13T22:25:41.598Z,1.13
2022-09-13T22:28:11.815Z,1.10
2022-09-13T22:30:38.503Z,1.15
2022-09-13T22:33:05.366Z,1.33
2022-09-13T22:35:31.989Z,1.15
2022-09-13T22:37:58.831Z,0.80
2022-09-13T22:40:25.894Z,1.00
2022-09-13T22:42:52.545Z,0.75
2022-09-13T22:49:36.330Z,1.08
2022-09-13T22:52:03.272Z,0.63
2022-09-13T22:54:30.519Z,1.20
2022-09-13T22:56:57.232Z,0.93
2022-09-13T22:59:24.110Z,0.73
2022-09-13T23:01:51.072Z,1.27
2022-09-13T23:04:17.927Z,0.90
2022-09-13T23:09:23.231Z,0.90
2022-09-13T23:11:50.201Z,0.80
2022-09-13T23:14:19.736Z,1.10
2022-09-13T23:16:49.683Z,0.75
2022-09-13T23:19:17.795Z,0.93
2022-09-13T23:21:44.801Z,1.00
2022-09-13T23:24:14.470Z,1.10
2022-09-13T23:31:51.619Z,0.73
2022-09-13T23:34:18.734Z,1.00
2022-09-13T23:36:46.181Z,1.08
2022-09-13T23:39:16.269Z,1.35
2022-09-13T23:44:10.551Z,1.00
2022-09-13T23:46:37.887Z,1.65
2022-09-13T23:54:12.728Z,1.00
2022-09-13T23:56:39.819Z,1.48
2022-09-13T23:59:07.185Z,1.30
